createdAt,value
2023-04-13T00:00:36.878Z,14.63
2023-04-13T00:03:04.532Z,14.10
2023-04-13T00:05:31.796Z,12.73
2023-04-13T00:08:03.204Z,12.70
2023-04-13T00:10:31.653Z,11.77
2023-04-13T00:13:01.613Z,11.33
2023-04-13T00:15:28.289Z,10.70
2023-04-13T00:17:54.904Z,10.57
2023-04-13T00:20:21.491Z,11.50
2023-04-13T00:22:49.066Z,11.03
2023-04-13T00:25:16.662Z,10.30
2023-04-13T00:27:44.281Z,10.00
2023-04-13T00:30:15.888Z,10.30
2023-04-13T00:32:43.935Z,9.17
2023-04-13T00:35:12.230Z,11.20
2023-04-13T00:37:39.224Z,13.17
2023-04-13T00:40:08.490Z,13.10
2023-04-13T00:42:35.480Z,11.80
2023-04-13T00:45:02.360Z,11.00
2023-04-13T00:47:32.435Z,7.97
2023-04-13T00:52:43.122Z,6.10
2023-04-13T00:55:09.931Z,7.37
2023-04-13T00:57:41.046Z,8.00
2023-04-13T01:00:12.937Z,7.83
2023-04-13T01:02:42.913Z,6.90
2023-04-13T01:05:12.881Z,6.87
2023-04-13T01:08:02.103Z,6.60
2023-04-13T01:10:36.944Z,6.90
2023-04-13T01:13:12.299Z,7.27
2023-04-13T01:15:46.480Z,7.77
2023-04-13T01:18:15.724Z,7.57
2023-04-13T01:20:45.496Z,7.30
2023-04-13T01:23:35.452Z,7.40
2023-04-13T01:26:08.840Z,8.37
2023-04-13T01:28:38.764Z,7.93
2023-04-13T01:31:11.917Z,8.30
2023-04-13T01:33:41.424Z,8.30
2023-04-13T01:36:10.628Z,7.53
2023-04-13T01:38:38.056Z,8.40
2023-04-13T01:41:04.926Z,8.57
2023-04-13T01:43:32.478Z,8.37
2023-04-13T01:46:04.264Z,8.60
2023-04-13T01:48:37.533Z,8.97
2023-04-13T01:51:11.290Z,8.57
2023-04-13T01:53:42.684Z,9.43
2023-04-13T01:56:09.691Z,9.57
2023-04-13T01:58:36.721Z,9.37
2023-04-13T02:01:07.945Z,9.77
2023-04-13T02:03:36.299Z,10.37
2023-04-13T02:06:03.289Z,10.97
2023-04-13T02:08:32.915Z,9.53
2023-04-13T02:11:01.085Z,9.37
2023-04-13T02:13:27.690Z,11.97
2023-04-13T02:15:54.248Z,10.17
2023-04-13T02:18:21.107Z,10.13
2023-04-13T02:20:47.698Z,10.07
2023-04-13T02:23:15.227Z,9.57
2023-04-13T02:25:47.106Z,9.53
2023-04-13T02:28:16.068Z,11.37
2023-04-13T02:30:42.907Z,10.13
2023-04-13T02:33:09.722Z,11.30
2023-04-13T02:35:39.120Z,9.63
2023-04-13T02:38:06.888Z,10.53
2023-04-13T02:40:33.515Z,10.20
2023-04-13T02:43:00.274Z,10.60
2023-04-13T02:45:27.340Z,10.33
2023-04-13T02:47:54.062Z,11.30
2023-04-13T02:50:20.837Z,9.70
2023-04-13T02:52:47.384Z,10.10
2023-04-13T02:55:13.978Z,9.97
2023-04-13T02:57:42.472Z,9.80
2023-04-13T03:00:10.761Z,9.93
2023-04-13T03:02:42.470Z,11.20
2023-04-13T03:05:09.581Z,9.20
2023-04-13T03:07:36.672Z,10.43
2023-04-13T03:10:09.141Z,10.97
2023-04-13T03:12:35.807Z,10.67
2023-04-13T03:15:05.006Z,10.77
2023-04-13T03:17:31.662Z,9.97
2023-04-13T03:19:58.460Z,11.17
2023-04-13T03:22:26.162Z,10.27
2023-04-13T03:24:52.868Z,9.33
2023-04-13T03:27:21.635Z,9.70
2023-04-13T03:29:48.417Z,9.40
2023-04-13T03:32:15.031Z,10.77
2023-04-13T03:34:44.540Z,10.20
2023-04-13T03:37:11.928Z,10.37
2023-04-13T03:39:41.581Z,9.57
2023-04-13T03:42:08.271Z,12.50
2023-04-13T03:44:35.029Z,12.83
2023-04-13T03:47:01.692Z,12.50
2023-04-13T03:49:28.520Z,11.27
2023-04-13T03:51:55.033Z,12.30
2023-04-13T03:54:21.613Z,10.40
2023-04-13T03:56:48.286Z,10.60
2023-04-13T03:59:14.927Z,11.37
2023-04-13T04:01:41.563Z,10.77
2023-04-13T04:04:08.388Z,11.50
2023-04-13T04:06:35.372Z,11.50
2023-04-13T04:09:02.123Z,11.90
2023-04-13T04:11:28.742Z,11.33
2023-04-13T04:13:55.426Z,11.50
2023-04-13T04:16:22.044Z,12.67
2023-04-13T04:18:48.649Z,18.07
2023-04-13T04:21:15.735Z,12.80
2023-04-13T04:23:42.350Z,12.00
2023-04-13T04:26:08.977Z,12.40
2023-04-13T04:28:39.060Z,11.87
2023-04-13T04:31:12.246Z,12.80
2023-04-13T04:33:39.101Z,12.10
2023-04-13T04:36:07.533Z,11.50
2023-04-13T04:38:34.137Z,12.20
2023-04-13T04:41:02.363Z,12.50
2023-04-13T04:43:30.504Z,13.73
2023-04-13T04:45:58.232Z,12.90
2023-04-13T04:48:27.143Z,12.73
2023-04-13T04:50:56.205Z,11.47
2023-04-13T04:53:23.089Z,12.77
2023-04-13T04:55:50.002Z,11.13
2023-04-13T04:58:16.887Z,14.37
2023-04-13T05:00:43.460Z,12.50
2023-04-13T05:03:10.229Z,13.47
2023-04-13T05:05:36.979Z,12.77
2023-04-13T05:08:03.688Z,12.17
2023-04-13T05:10:30.417Z,11.77
2023-04-13T05:12:57.032Z,12.60
2023-04-13T05:15:23.855Z,11.60
2023-04-13T05:17:51.265Z,12.50
2023-04-13T05:20:19.410Z,16.77
2023-04-13T05:22:47.017Z,16.03
2023-04-13T05:25:13.695Z,12.10
2023-04-13T05:27:40.310Z,13.13
2023-04-13T05:30:08.960Z,12.97
2023-04-13T05:32:36.117Z,13.10
2023-04-13T05:35:04.554Z,11.90
2023-04-13T05:37:31.528Z,11.27
2023-04-13T05:39:58.725Z,12.33
2023-04-13T05:42:25.382Z,11.60
2023-04-13T05:44:52.471Z,11.50
2023-04-13T05:47:23.030Z,11.27
2023-04-13T05:49:49.698Z,11.17
2023-04-13T05:52:16.475Z,11.40
2023-04-13T05:54:43.204Z,11.10
2023-04-13T05:57:09.931Z,10.20
2023-04-13T05:59:37.129Z,11.90
2023-04-13T06:02:03.771Z,10.93
2023-04-13T06:04:31.642Z,10.07
2023-04-13T06:06:59.404Z,11.90
2023-04-13T06:09:26.094Z,11.07
2023-04-13T06:11:53.261Z,11.27
2023-04-13T06:14:21.079Z,10.13
2023-04-13T06:16:47.769Z,9.73
2023-04-13T06:19:14.416Z,8.97
2023-04-13T06:21:40.965Z,9.60
2023-04-13T06:24:07.867Z,8.13
2023-04-13T06:26:34.557Z,8.73
2023-04-13T06:29:02.773Z,6.93
2023-04-13T06:31:29.708Z,6.23
2023-04-13T06:33:57.861Z,7.23
2023-04-13T06:36:24.522Z,7.50
2023-04-13T06:38:51.232Z,6.63
2023-04-13T06:41:17.827Z,6.80
2023-04-13T06:43:44.602Z,6.60
2023-04-13T06:46:12.470Z,5.53
2023-04-13T06:48:39.032Z,5.23
2023-04-13T06:51:06.039Z,4.97
2023-04-13T06:53:32.720Z,6.03
2023-04-13T06:55:59.363Z,17.10
2023-04-13T06:58:26.015Z,6.00
2023-04-13T07:00:52.609Z,4.20
2023-04-13T07:03:19.298Z,4.10
2023-04-13T07:05:46.448Z,4.17
2023-04-13T07:08:13.498Z,5.20
2023-04-13T07:10:41.209Z,3.80
2023-04-13T07:13:07.987Z,3.70
2023-04-13T07:15:37.887Z,3.47
2023-04-13T07:18:04.988Z,3.13
2023-04-13T07:20:31.811Z,3.00
2023-04-13T07:22:58.369Z,3.20
2023-04-13T07:25:25.034Z,2.87
2023-04-13T07:27:51.590Z,3.60
2023-04-13T07:30:18.192Z,2.80
2023-04-13T07:32:44.929Z,2.63
2023-04-13T07:35:11.937Z,2.20
2023-04-13T07:37:38.673Z,2.60
2023-04-13T07:40:07.050Z,1.97
2023-04-13T07:42:33.806Z,2.20
2023-04-13T07:45:00.614Z,1.90
2023-04-13T07:47:27.418Z,2.10
2023-04-13T07:49:54.436Z,2.00
2023-04-13T07:52:21.371Z,1.50
2023-04-13T07:54:48.318Z,1.77
2023-04-13T07:57:15.154Z,1.53
2023-04-13T07:59:41.836Z,2.07
2023-04-13T08:02:08.445Z,2.00
2023-04-13T08:04:36.158Z,1.70
2023-04-13T08:07:06.158Z,1.87
2023-04-13T08:09:36.642Z,1.90
2023-04-13T08:12:03.970Z,1.80
2023-04-13T08:14:31.113Z,1.87
2023-04-13T08:16:57.958Z,1.40
2023-04-13T08:19:25.508Z,1.97
2023-04-13T08:21:52.732Z,2.00
2023-04-13T08:24:21.157Z,1.40
2023-04-13T08:26:47.782Z,1.87
2023-04-13T08:29:14.620Z,2.13
2023-04-13T08:31:41.223Z,1.83
2023-04-13T08:34:10.582Z,1.50
2023-04-13T08:36:38.021Z,1.50
2023-04-13T08:39:06.005Z,1.60
2023-04-13T08:41:35.683Z,1.87
2023-04-13T08:44:06.897Z,1.50
2023-04-13T08:46:36.984Z,1.77
2023-04-13T08:49:04.092Z,2.03
2023-04-13T08:51:32.285Z,1.50
2023-04-13T08:53:59.535Z,2.40
2023-04-13T08:56:41.920Z,1.50
2023-04-13T08:59:09.902Z,1.40
2023-04-13T09:01:37.871Z,1.60
2023-04-13T09:04:10.692Z,1.73
2023-04-13T09:06:41.480Z,1.40
2023-04-13T09:09:15.577Z,1.20
2023-04-13T09:11:43.718Z,3.07
2023-04-13T09:14:10.466Z,1.70
2023-04-13T09:16:41.724Z,1.77
2023-04-13T09:19:08.974Z,1.70
2023-04-13T09:21:40.603Z,1.23
2023-04-13T09:24:08.354Z,1.77
2023-04-13T09:26:48.779Z,2.17
2023-04-13T09:29:20.545Z,4.13
2023-04-13T09:31:47.815Z,1.80
2023-04-13T09:34:25.520Z,1.30
2023-04-13T09:36:54.541Z,1.33
2023-04-13T09:39:29.257Z,1.70
2023-04-13T09:41:56.279Z,1.70
2023-04-13T09:44:28.692Z,1.70
2023-04-13T09:47:03.094Z,1.70
2023-04-13T09:49:43.336Z,1.70
2023-04-13T09:52:20.671Z,1.50
2023-04-13T09:54:51.654Z,1.60
2023-04-13T09:57:33.506Z,1.20
2023-04-13T10:00:07.532Z,1.30
2023-04-13T10:02:34.363Z,1.43
2023-04-13T10:05:01.832Z,1.53
2023-04-13T10:07:30.809Z,1.80
2023-04-13T10:09:57.436Z,1.60
2023-04-13T10:12:26.944Z,1.30
2023-04-13T10:15:06.665Z,1.50
2023-04-13T10:17:53.986Z,1.10
2023-04-13T10:20:21.733Z,1.60
2023-04-13T10:22:51.198Z,1.47
2023-04-13T10:25:31.933Z,1.60
2023-04-13T10:28:00.802Z,1.47
2023-04-13T10:30:27.886Z,1.63
2023-04-13T10:33:05.887Z,1.60
2023-04-13T10:35:37.186Z,1.67
2023-04-13T10:38:04.593Z,2.70
2023-04-13T10:40:42.715Z,4.20
2023-04-13T10:43:09.513Z,1.33
2023-04-13T10:45:37.969Z,2.03
2023-04-13T10:48:04.822Z,1.60
2023-04-13T10:50:31.723Z,5.57
2023-04-13T10:53:06.952Z,2.30
2023-04-13T10:55:35.310Z,1.53
2023-04-13T10:58:03.461Z,2.13
2023-04-13T11:00:45.654Z,1.97
2023-04-13T11:03:17.841Z,1.40
2023-04-13T11:05:47.347Z,1.40
2023-04-13T11:08:21.948Z,0.77
2023-04-13T11:10:52.867Z,1.20
2023-04-13T11:13:19.641Z,1.10
2023-04-13T11:15:49.415Z,1.10
2023-04-13T11:18:25.819Z,1.10
2023-04-13T11:20:52.620Z,1.40
2023-04-13T11:23:20.240Z,0.80
2023-04-13T11:26:01.679Z,0.73
2023-04-13T11:28:40.446Z,1.07
2023-04-13T11:31:07.847Z,0.93
2023-04-13T11:33:38.582Z,0.90
2023-04-13T11:36:07.538Z,1.10
2023-04-13T11:38:34.181Z,1.10
2023-04-13T11:41:15.723Z,0.70
2023-04-13T11:43:46.599Z,1.00
2023-04-13T11:46:15.878Z,2.73
2023-04-13T11:48:43.687Z,1.00
2023-04-13T11:51:11.586Z,2.10
2023-04-13T11:53:39.728Z,3.87
2023-04-13T11:56:07.089Z,0.90
2023-04-13T11:58:33.858Z,4.57
2023-04-13T12:01:13.324Z,1.00
2023-04-13T12:03:56.970Z,1.10
2023-04-13T12:06:30.028Z,1.00
2023-04-13T12:09:09.123Z,1.10
2023-04-13T12:11:42.208Z,3.87
2023-04-13T12:14:52.075Z,6.90
2023-04-13T12:17:38.375Z,1.50
2023-04-13T12:20:07.282Z,3.17
2023-04-13T12:22:57.704Z,0.83
2023-04-13T12:27:59.508Z,0.87
2023-04-13T12:30:27.322Z,1.43
2023-04-13T12:32:55.787Z,1.10
2023-04-13T12:35:22.741Z,1.50
2023-04-13T12:37:50.468Z,2.47
2023-04-13T12:40:18.737Z,2.60
2023-04-13T12:42:46.823Z,3.30
2023-04-13T12:45:14.487Z,9.37
2023-04-13T12:47:41.844Z,13.60
2023-04-13T12:50:10.708Z,1.10
2023-04-13T12:52:41.075Z,0.90
2023-04-13T12:55:08.587Z,1.60
2023-04-13T12:57:35.487Z,1.33
2023-04-13T13:00:02.118Z,1.13
2023-04-13T13:02:31.197Z,1.30
2023-04-13T13:04:59.279Z,1.00
2023-04-13T13:07:27.704Z,0.87
2023-04-13T13:09:54.259Z,0.97
2023-04-13T13:12:20.868Z,0.90
2023-04-13T13:14:47.543Z,0.97
2023-04-13T13:17:14.190Z,1.07
2023-04-13T13:19:40.785Z,1.20
2023-04-13T13:22:07.414Z,1.33
2023-04-13T13:24:34.284Z,1.33
2023-04-13T13:27:30.410Z,1.30
2023-04-13T13:29:47.533Z,1.27
2023-04-13T13:32:14.560Z,1.33
2023-04-13T13:34:41.855Z,1.70
2023-04-13T13:37:09.101Z,1.20
2023-04-13T13:39:37.474Z,1.17
2023-04-13T13:42:04.605Z,0.88
2023-04-13T13:44:31.341Z,1.02
2023-04-13T13:46:58.063Z,0.98
2023-04-13T13:49:25.466Z,1.27
2023-04-13T13:51:52.459Z,0.90
2023-04-13T13:54:20.459Z,6.47
2023-04-13T13:56:47.182Z,1.10
2023-04-13T13:59:13.777Z,4.87
2023-04-13T14:01:41.133Z,0.97
2023-04-13T14:04:08.156Z,1.07
2023-04-13T14:06:35.187Z,1.50
2023-04-13T14:09:02.266Z,1.10
2023-04-13T14:11:29.830Z,1.53
2023-04-13T14:13:56.647Z,1.33
2023-04-13T14:16:23.805Z,1.47
2023-04-13T14:18:50.698Z,1.47
2023-04-13T14:21:21.620Z,1.43
2023-04-13T14:23:49.850Z,1.93
2023-04-13T14:26:16.752Z,1.90
2023-04-13T14:28:44.467Z,1.20
2023-04-13T14:31:11.317Z,1.10
2023-04-13T14:33:38.181Z,0.80
2023-04-13T14:36:05.022Z,0.67
2023-04-13T14:38:32.237Z,0.90
2023-04-13T14:40:58.979Z,0.67
2023-04-13T14:43:25.574Z,0.73
2023-04-13T14:45:58.166Z,0.60
2023-04-13T14:48:24.840Z,2.10
2023-04-13T14:50:52.966Z,1.70
2023-04-13T14:53:19.688Z,1.20
2023-04-13T14:55:46.287Z,0.98
2023-04-13T14:58:13.107Z,0.60
2023-04-13T15:00:39.946Z,0.50
2023-04-13T15:03:08.625Z,0.77
2023-04-13T15:05:45.564Z,10.02
2023-04-13T15:08:14.364Z,7.88
2023-04-13T15:10:41.464Z,7.82
2023-04-13T15:13:08.567Z,10.68
2023-04-13T15:15:36.846Z,0.80
2023-04-13T15:18:04.707Z,9.50
2023-04-13T15:20:31.747Z,6.25
2023-04-13T15:22:59.181Z,1.48
2023-04-13T15:25:27.193Z,3.53
2023-04-13T15:27:56.017Z,0.65
2023-04-13T15:30:28.138Z,0.68
2023-04-13T15:33:05.011Z,0.50
2023-04-13T15:35:34.690Z,0.80
2023-04-13T15:38:03.578Z,0.73
2023-04-13T15:40:34.986Z,0.90
2023-04-13T15:43:02.191Z,3.13
2023-04-13T15:45:28.847Z,1.00
2023-04-13T15:47:55.464Z,0.80
2023-04-13T15:50:22.308Z,0.90
2023-04-13T15:52:48.866Z,3.40
2023-04-13T15:55:15.485Z,1.27
2023-04-13T15:57:42.088Z,1.10
2023-04-13T16:00:09.416Z,1.13
2023-04-13T16:02:37.532Z,0.97
2023-04-13T16:05:04.588Z,0.93
2023-04-13T16:07:31.544Z,0.90
2023-04-13T16:09:58.502Z,0.87
2023-04-13T16:12:32.122Z,0.60
2023-04-13T16:14:59.772Z,0.70
2023-04-13T16:17:33.456Z,0.90
2023-04-13T16:20:19.613Z,1.00
2023-04-13T16:22:49.851Z,0.93
2023-04-13T16:25:17.939Z,1.40
2023-04-13T16:27:46.048Z,1.20
2023-04-13T16:30:13.547Z,1.37
2023-04-13T16:32:44.958Z,1.10
2023-04-13T16:35:12.513Z,1.23
2023-04-13T16:37:42.899Z,1.77
2023-04-13T16:40:11.189Z,1.10
2023-04-13T16:42:41.200Z,1.27
2023-04-13T16:45:11.392Z,1.40
2023-04-13T16:47:39.021Z,1.33
2023-04-13T16:50:07.364Z,0.80
2023-04-13T16:52:34.849Z,0.70
2023-04-13T16:55:02.695Z,0.90
2023-04-13T16:57:29.417Z,0.97
2023-04-13T17:00:00.008Z,0.80
2023-04-13T17:02:31.497Z,3.90
2023-04-13T17:04:59.017Z,0.80
2023-04-13T17:07:28.244Z,1.30
2023-04-13T17:09:57.770Z,1.00
2023-04-13T17:12:25.141Z,1.10
2023-04-13T17:14:51.778Z,1.00
2023-04-13T17:17:18.386Z,1.10
2023-04-13T17:19:45.074Z,1.17
2023-04-13T17:22:11.979Z,0.90
2023-04-13T17:24:38.888Z,1.10
2023-04-13T17:27:06.509Z,1.30
2023-04-13T17:29:36.446Z,1.30
2023-04-13T17:32:03.082Z,1.43
2023-04-13T17:34:29.765Z,1.17
2023-04-13T17:36:57.903Z,1.47
2023-04-13T17:39:24.682Z,1.33
2023-04-13T17:41:51.354Z,1.40
2023-04-13T17:44:17.923Z,1.63
2023-04-13T17:46:45.898Z,1.30
2023-04-13T17:49:14.536Z,1.03
2023-04-13T17:51:44.824Z,1.27
2023-04-13T17:54:12.531Z,1.20
2023-04-13T17:56:39.386Z,1.20
2023-04-13T17:59:05.996Z,1.30
2023-04-13T18:01:32.550Z,1.50
2023-04-13T18:04:00.063Z,1.60
2023-04-13T18:06:27.470Z,1.83
2023-04-13T18:08:54.097Z,2.10
2023-04-13T18:11:20.694Z,2.07
2023-04-13T18:13:47.235Z,1.60
2023-04-13T18:16:14.438Z,1.77
2023-04-13T18:18:41.200Z,2.30
2023-04-13T18:21:08.391Z,4.57
2023-04-13T18:23:35.125Z,12.97
2023-04-13T18:26:02.087Z,4.73
2023-04-13T18:28:29.834Z,2.97
2023-04-13T18:31:02.106Z,2.47
2023-04-13T18:33:29.503Z,2.50
2023-04-13T18:35:56.244Z,2.63
2023-04-13T18:38:25.547Z,2.13
2023-04-13T18:40:52.237Z,2.23
2023-04-13T18:43:19.637Z,2.57
2023-04-13T18:45:46.277Z,2.03
2023-04-13T18:48:12.914Z,2.27
2023-04-13T18:50:39.562Z,2.50
2023-04-13T18:53:06.225Z,2.17
2023-04-13T18:55:32.923Z,2.83
2023-04-13T18:57:59.513Z,2.17
2023-04-13T19:00:26.185Z,3.77
2023-04-13T19:02:53.122Z,3.67
2023-04-13T19:05:20.573Z,4.07
2023-04-13T19:07:58.911Z,3.03
2023-04-13T19:10:28.281Z,2.63
2023-04-13T19:12:56.453Z,2.70
2023-04-13T19:15:24.246Z,3.30
2023-04-13T19:17:52.284Z,2.73
2023-04-13T19:20:22.197Z,3.07
2023-04-13T19:22:48.848Z,3.30
2023-04-13T19:25:15.751Z,2.90
2023-04-13T19:27:46.740Z,2.53
2023-04-13T19:30:15.060Z,3.07
2023-04-13T19:32:44.373Z,2.43
2023-04-13T19:35:12.952Z,3.30
2023-04-13T19:37:40.193Z,2.90
2023-04-13T19:40:12.638Z,2.40
2023-04-13T19:42:43.769Z,2.57
2023-04-13T19:45:11.232Z,2.83
2023-04-13T19:47:38.677Z,1.90
2023-04-13T19:50:07.390Z,2.13
2023-04-13T19:52:34.195Z,1.90
2023-04-13T19:55:00.795Z,2.40
2023-04-13T19:57:28.659Z,1.90
2023-04-13T19:59:55.405Z,1.90
2023-04-13T20:02:22.272Z,2.40
2023-04-13T20:04:53.391Z,2.37
2023-04-13T20:07:20.709Z,2.40
2023-04-13T20:09:49.127Z,2.23
2023-04-13T20:12:16.546Z,2.30
2023-04-13T20:14:45.765Z,3.80
2023-04-13T20:17:13.126Z,2.90
2023-04-13T20:19:39.705Z,3.80
2023-04-13T20:22:07.238Z,2.83
2023-04-13T20:24:33.870Z,3.07
2023-04-13T20:27:00.632Z,2.97
2023-04-13T20:29:27.738Z,2.70
2023-04-13T20:31:54.878Z,3.13
2023-04-13T20:34:22.245Z,3.43
2023-04-13T20:36:49.131Z,5.60
2023-04-13T20:39:18.618Z,4.47
2023-04-13T20:41:55.288Z,3.80
2023-04-13T20:44:25.952Z,3.20
2023-04-13T20:46:56.312Z,3.33
2023-04-13T20:49:24.306Z,3.63
2023-04-13T20:51:56.156Z,4.30
2023-04-13T20:54:23.518Z,4.00
2023-04-13T20:56:50.349Z,4.73
2023-04-13T20:59:18.613Z,3.33
2023-04-13T21:01:45.933Z,4.30
2023-04-13T21:04:12.827Z,3.77
2023-04-13T21:06:40.710Z,3.60
2023-04-13T21:09:08.656Z,4.43
2023-04-13T21:11:35.603Z,3.77
2023-04-13T21:14:02.738Z,4.50
2023-04-13T21:16:29.598Z,5.27
2023-04-13T21:18:57.199Z,4.50
2023-04-13T21:21:25.115Z,5.60
2023-04-13T21:23:53.397Z,4.90
2023-04-13T21:26:20.874Z,5.23
2023-04-13T21:28:47.709Z,4.97
2023-04-13T21:31:14.409Z,5.70
2023-04-13T21:33:41.159Z,5.70
2023-04-13T21:38:41.641Z,6.23
2023-04-13T21:41:18.900Z,5.57
2023-04-13T21:43:46.390Z,5.40
2023-04-13T21:46:14.012Z,7.00
2023-04-13T21:48:41.295Z,6.00
2023-04-13T21:51:09.415Z,6.63
2023-04-13T21:53:36.346Z,6.20
2023-04-13T21:56:03.266Z,6.40
2023-04-13T21:58:38.547Z,7.33
2023-04-13T22:01:05.548Z,7.10
2023-04-13T22:03:35.357Z,7.37
2023-04-13T22:06:02.538Z,5.70
2023-04-13T22:08:29.355Z,6.00
2023-04-13T22:10:55.995Z,6.53
2023-04-13T22:13:22.526Z,6.67
2023-04-13T22:15:49.275Z,6.63
2023-04-13T22:18:16.109Z,7.10
2023-04-13T22:20:42.737Z,5.73
2023-04-13T22:23:10.088Z,6.40
2023-04-13T22:25:36.942Z,5.87
2023-04-13T22:28:03.925Z,5.93
2023-04-13T22:30:30.568Z,6.43
2023-04-13T22:32:57.255Z,6.37
2023-04-13T22:35:24.912Z,6.50
2023-04-13T22:37:51.564Z,6.67
2023-04-13T22:40:18.357Z,6.37
2023-04-13T22:42:44.982Z,6.43
2023-04-13T22:45:11.768Z,7.20
2023-04-13T22:47:38.567Z,6.30
2023-04-13T22:50:05.708Z,6.63
2023-04-13T22:52:32.294Z,7.03
2023-04-13T22:54:58.996Z,6.20
2023-04-13T22:57:25.920Z,6.70
2023-04-13T22:59:52.487Z,7.33
2023-04-13T23:02:19.114Z,7.83
2023-04-13T23:04:46.138Z,7.77
2023-04-13T23:07:12.819Z,7.67
2023-04-13T23:09:39.444Z,7.33
2023-04-13T23:12:06.536Z,8.47
2023-04-13T23:14:33.093Z,7.40
2023-04-13T23:16:59.785Z,7.07
2023-04-13T23:19:26.360Z,7.13
2023-04-13T23:21:52.938Z,8.27
2023-04-13T23:24:19.547Z,7.90
2023-04-13T23:26:46.315Z,8.47
2023-04-13T23:29:12.922Z,7.90
2023-04-13T23:31:39.565Z,7.73
2023-04-13T23:34:06.224Z,7.93
2023-04-13T23:36:33.904Z,7.70
2023-04-13T23:39:00.803Z,8.60
2023-04-13T23:41:27.504Z,8.80
2023-04-13T23:43:54.143Z,8.63
2023-04-13T23:46:22.746Z,8.03
2023-04-13T23:48:49.405Z,8.90
2023-04-13T23:51:16.002Z,8.07
2023-04-13T23:53:42.603Z,8.40
2023-04-13T23:56:09.245Z,8.20
2023-04-13T23:58:35.951Z,8.53
